EGKK - London / Gatwick Airport
Distance from station: E 5mi, 14km
Updated: 06/19/2018 2:50pm
Clear
Clear
 Wind from SSW
Wind: SSW 6 mph , 9 km/h
Temperature: 63°F , 17°C
Dew Point: 59°F , 15°C
Humidity: 88%
Barometer: 30.21 inHg , 1023 hPa
Summary: Clear
Visibility: greater than 7 miles , 10 km
2018/06/19 21:50 EGKK 192150Z 20005KT CAVOK 17/15 Q1023